| time (UTC) | temp F | wind direction | speed MPH | gust MPH | rain 1hr in | rain 24hr in | rain mn in | humidity % | barometer mb |
| 20260510032003 | 47 | 144 | 2.0 | 6.0 | 0.01 | 0.16 | 0.16 | 87 | 999.7 |
| 20260510031503 | 48 | 158 | 3.0 | 5.0 | 0.01 | 0.16 | 0.16 | 87 | 999.6 |
| 20260510031025 | 48 | 151 | 3.0 | 7.0 | 0.01 | 0.16 | 0.16 | 87 | 999.4 |
| 20260510030503 | 48 | 151 | 2.0 | 7.0 | 0.01 | 0.16 | 0.16 | 87 | 999.4 |
| 20260510030004 | 48 | 156 | 3.0 | 6.0 | 0.02 | 0.16 | 0.16 | 87 | 999.3 |
| 20260510025503 | 48 | 157 | 3.0 | 8.0 | 0.02 | 0.16 | 0.16 | 87 | 999.1 |
| 20260510025003 | 48 | 162 | 4.0 | 8.0 | 0.03 | 0.16 | 0.16 | 87 | 999.0 |
| 20260510024503 | 48 | 173 | 3.0 | 8.0 | 0.03 | 0.16 | 0.16 | 87 | 998.9 |
| 20260510024003 | 48 | 177 | 3.0 | 8.0 | 0.03 | 0.16 | 0.16 | 87 | 998.7 |
| 20260510023503 | 48 | 162 | 3.0 | 8.0 | 0.03 | 0.16 | 0.16 | 87 | 998.6 |
| 20260510023004 | 48 | 152 | 2.0 | 8.0 | 0.03 | 0.16 | 0.16 | 87 | 998.5 |
| 20260510022504 | 48 | 162 | 2.0 | 5.0 | 0.04 | 0.16 | 0.16 | 87 | 998.5 |
| 20260510022003 | 48 | 160 | 3.0 | 6.0 | 0.03 | 0.15 | 0.15 | 87 | 998.4 |
| 20260510021503 | 48 | 138 | 3.0 | 7.0 | 0.03 | 0.15 | 0.15 | 87 | 998.3 |
| 20260510021025 | 48 | 140 | 3.0 | 7.0 | 0.03 | 0.15 | 0.15 | 87 | 998.3 |
| 20260510020503 | 48 | 150 | 3.0 | 7.0 | 0.04 | 0.15 | 0.15 | 86 | 998.1 |
| 20260510020003 | 48 | 146 | 3.0 | 7.0 | 0.04 | 0.14 | 0.14 | 86 | 998.0 |
| 20260510015503 | 48 | 150 | 4.0 | 8.0 | 0.04 | 0.13 | 0.13 | 86 | 997.9 |
| 20260510015003 | 48 | 160 | 4.0 | 11.0 | 0.04 | 0.13 | 0.13 | 86 | 997.7 |
| 20260510014524 | 48 | 162 | 4.0 | 11.0 | 0.05 | 0.13 | 0.13 | 86 | 997.7 |
| 20260510014003 | 48 | 178 | 4.0 | 9.0 | 0.05 | 0.13 | 0.13 | 86 | 997.7 |
| 20260510013503 | 49 | 190 | 5.0 | 10.0 | 0.06 | 0.13 | 0.13 | 86 | 997.7 |
| 20260510013003 | 49 | 192 | 5.0 | 10.0 | 0.06 | 0.13 | 0.13 | 86 | 997.5 |
| 20260510012504 | 49 | 190 | 4.0 | 9.0 | 0.06 | 0.12 | 0.12 | 86 | 997.5 |
| 20260510012003 | 49 | 182 | 4.0 | 9.0 | 0.06 | 0.12 | 0.12 | 86 | 997.4 |
| 20260510011524 | 49 | 176 | 5.0 | 9.0 | 0.07 | 0.12 | 0.12 | 86 | 997.5 |
| 20260510011004 | 48 | 166 | 5.0 | 13.0 | 0.08 | 0.12 | 0.12 | 85 | 997.5 |
| 20260510010504 | 48 | 151 | 5.0 | 13.0 | 0.08 | 0.11 | 0.11 | 85 | 997.5 |
| 20260510010003 | 49 | 144 | 5.0 | 12.0 | 0.08 | 0.10 | 0.10 | 85 | 997.5 |
| 20260510005503 | 50 | 160 | 4.0 | 12.0 | 0.08 | 0.09 | 0.09 | 85 | 997.5 |
| 20260510005003 | 50 | 167 | 4.0 | 8.0 | 0.07 | 0.09 | 0.09 | 85 | 997.4 |
| 20260510004503 | 50 | 157 | 4.0 | 9.0 | 0.07 | 0.08 | 0.08 | 85 | 997.4 |
| 20260510004004 | 50 | 156 | 4.0 | 9.0 | 0.08 | 0.08 | 0.08 | 85 | 997.5 |
| 20260510003503 | 50 | 165 | 4.0 | 10.0 | 0.07 | 0.07 | 0.07 | 84 | 997.6 |
| 20260510003004 | 50 | 179 | 3.0 | 10.0 | 0.07 | 0.07 | 0.07 | 84 | 997.5 |
| 20260510002503 | 51 | 187 | 3.0 | 10.0 | 0.06 | 0.06 | 0.06 | 84 | 997.5 |
| 20260510002003 | 51 | 177 | 3.0 | 7.0 | 0.06 | 0.06 | 0.06 | 84 | 997.4 |
| 20260510001504 | 51 | 173 | 2.0 | 6.0 | 0.05 | 0.05 | 0.05 | 84 | 997.1 |
| 20260510001002 | 51 | 189 | 2.0 | 5.0 | 0.04 | 0.04 | 0.04 | 84 | 997.2 |
| 20260510000502 | 51 | 188 | 3.0 | 5.0 | 0.03 | 0.03 | 0.03 | 84 | 997.4 |
| 20260510000002 | 51 | 173 | 4.0 | 6.0 | 0.02 | 0.02 | 0.02 | 83 | 997.3 |
| 20260509235502 | 51 | 177 | 5.0 | 9.0 | 0.02 | 0.02 | 0.02 | 83 | 997.2 |
| 20260509235002 | 51 | 189 | 5.0 | 9.0 | 0.02 | 0.02 | 0.02 | 83 | 997.1 |
| 20260509234502 | 51 | 190 | 6.0 | 11.0 | 0.01 | 0.01 | 0.01 | 83 | 997.2 |
| 20260509234002 | 52 | 190 | 6.0 | 11.0 | 0.00 | 0.00 | 0.00 | 82 | 997.2 |
| 20260509233524 | 52 | 187 | 6.0 | 12.0 | 0.00 | 0.00 | 0.00 | 82 | 997.1 |
| 20260509233002 | 52 | 174 | 5.0 | 12.0 | 0.00 | 0.00 | 0.00 | 82 | 997.0 |
| 20260509232502 | 52 | 160 | 6.0 | 14.0 | 0.00 | 0.00 | 0.00 | 82 | 996.8 |
| 20260509232002 | 52 | 161 | 7.0 | 14.0 | 0.00 | 0.00 | 0.00 | 82 | 996.6 |
| 20260509231502 | 53 | 166 | 7.0 | 15.0 | 0.00 | 0.00 | 0.00 | 82 | 996.6 |
| 20260509231002 | 53 | 172 | 7.0 | 15.0 | 0.00 | 0.00 | 0.00 | 82 | 996.6 |
| 20260509230502 | 54 | 175 | 8.0 | 15.0 | 0.00 | 0.00 | 0.00 | 82 | 996.5 |
| 20260509230003 | 54 | 175 | 8.0 | 14.0 | 0.00 | 0.00 | 0.00 | 83 | 996.5 |
| 20260509225502 | 54 | 180 | 8.0 | 15.0 | 0.00 | 0.00 | 0.00 | 83 | 996.2 |
| 20260509225002 | 54 | 183 | 8.0 | 16.0 | 0.00 | 0.00 | 0.00 | 83 | 996.1 |
| 20260509224502 | 54 | 188 | 9.0 | 16.0 | 0.00 | 0.00 | 0.00 | 82 | 995.9 |
| 20260509224002 | 55 | 193 | 10.0 | 17.0 | 0.00 | 0.00 | 0.00 | 82 | 995.8 |
| 20260509223502 | 55 | 195 | 11.0 | 19.0 | 0.00 | 0.00 | 0.00 | 83 | 995.5 |
| 20260509223003 | 55 | 197 | 11.0 | 19.0 | 0.00 | 0.00 | 0.00 | 83 | 995.1 |
| 20260509222502 | 54 | 193 | 11.0 | 19.0 | 0.00 | 0.00 | 0.00 | 83 | 994.9 |
| 20260509222023 | 54 | 192 | 11.0 | 19.0 | 0.00 | 0.00 | 0.00 | 83 | 994.7 |
| 20260509221503 | 54 | 192 | 12.0 | 24.0 | 0.00 | 0.00 | 0.00 | 82 | 994.4 |
| 20260509221002 | 54 | 190 | 12.0 | 24.0 | 0.00 | 0.00 | 0.00 | 81 | 994.2 |
| 20260509220503 | 55 | 194 | 12.0 | 21.0 | 0.00 | 0.00 | 0.00 | 79 | 994.1 |
| 20260509220002 | 55 | 191 | 11.0 | 23.0 | 0.00 | 0.00 | 0.00 | 75 | 993.9 |
| 20260509215502 | 57 | 188 | 9.0 | 23.0 | 0.00 | 0.00 | 0.00 | 68 | 993.8 |
| 20260509215003 | 61 | 208 | 9.0 | 18.0 | 0.00 | 0.00 | 0.00 | 58 | 993.6 |
| 20260509214503 | 63 | 257 | 10.0 | 17.0 | 0.00 | 0.00 | 0.00 | 50 | 993.2 |
| 20260509214003 | 63 | 259 | 10.0 | 17.0 | 0.00 | 0.00 | 0.00 | 49 | 992.5 |
| 20260509213503 | 62 | 252 | 10.0 | 17.0 | 0.00 | 0.00 | 0.00 | 49 | 992.2 |
| 20260509213003 | 62 | 253 | 11.0 | 17.0 | 0.00 | 0.00 | 0.00 | 49 | 992.1 |
| 20260509212502 | 62 | 258 | 12.0 | 22.0 | 0.00 | 0.00 | 0.00 | 49 | 991.8 |
| 20260509212002 | 62 | 258 | 13.0 | 25.0 | 0.00 | 0.00 | 0.00 | 50 | 991.8 |
| 20260509211503 | 62 | 249 | 13.0 | 25.0 | 0.00 | 0.00 | 0.00 | 49 | 991.6 |
| 20260509211024 | 62 | 253 | 14.0 | 22.0 | 0.00 | 0.00 | 0.00 | 49 | 991.6 |
| 20260509210503 | 62 | 269 | 13.0 | 27.0 | 0.00 | 0.00 | 0.00 | 49 | 991.4 |
| 20260509210003 | 62 | 268 | 12.0 | 27.0 | 0.00 | 0.00 | 0.00 | 49 | 991.3 |
| 20260509205503 | 62 | 252 | 12.0 | 24.0 | 0.00 | 0.00 | 0.00 | 49 | 991.1 |
| 20260509205003 | 61 | 250 | 13.0 | 24.0 | 0.00 | 0.00 | 0.00 | 49 | 991.0 |
| 20260509204502 | 61 | 249 | 13.0 | 24.0 | 0.00 | 0.00 | 0.00 | 49 | 991.1 |
| 20260509204002 | 61 | 254 | 13.0 | 21.0 | 0.00 | 0.00 | 0.00 | 49 | 991.0 |
| 20260509203502 | 61 | 253 | 13.0 | 23.0 | 0.00 | 0.00 | 0.00 | 49 | 991.0 |
| 20260509203003 | 61 | 253 | 12.0 | 26.0 | 0.00 | 0.00 | 0.00 | 50 | 990.7 |
| 20260509202503 | 61 | 256 | 13.0 | 26.0 | 0.00 | 0.00 | 0.00 | 49 | 990.7 |
| 20260509202003 | 61 | 253 | 13.0 | 21.0 | 0.00 | 0.00 | 0.00 | 50 | 990.6 |
| 20260509201524 | 61 | 241 | 13.0 | 21.0 | 0.00 | 0.00 | 0.00 | 49 | 990.5 |
| 20260509201002 | 61 | 234 | 14.0 | 20.0 | 0.00 | 0.00 | 0.00 | 49 | 990.6 |
| 20260509200524 | 60 | 252 | 13.0 | 25.0 | 0.00 | 0.00 | 0.00 | 50 | 990.6 |
| 20260509200002 | 61 | 268 | 12.0 | 25.0 | 0.00 | 0.00 | 0.00 | 49 | 990.5 |
| 20260509195503 | 60 | 267 | 12.0 | 23.0 | 0.00 | 0.00 | 0.00 | 50 | 990.6 |
| 20260509195024 | 60 | 258 | 12.0 | 23.0 | 0.00 | 0.00 | 0.00 | 49 | 990.4 |
| 20260509194503 | 60 | 263 | 11.0 | 24.0 | 0.00 | 0.00 | 0.00 | 50 | 990.5 |
| 20260509194002 | 60 | 262 | 11.0 | 24.0 | 0.00 | 0.00 | 0.00 | 50 | 990.5 |
| 20260509193503 | 60 | 254 | 12.0 | 19.0 | 0.00 | 0.00 | 0.00 | 49 | 990.4 |
| 20260509193003 | 60 | 252 | 12.0 | 20.0 | 0.00 | 0.00 | 0.00 | 49 | 990.4 |
| 20260509192503 | 61 | 261 | 12.0 | 23.0 | 0.00 | 0.00 | 0.00 | 49 | 990.3 |
| 20260509192003 | 61 | 265 | 12.0 | 23.0 | 0.00 | 0.00 | 0.00 | 49 | 990.3 |
| 20260509191502 | 60 | 250 | 12.0 | 22.0 | 0.00 | 0.00 | 0.00 | 49 | 990.1 |
| 20260509191003 | 60 | 257 | 12.0 | 23.0 | 0.00 | 0.00 | 0.00 | 49 | 990.0 |
| 20260509190524 | 61 | 269 | 12.0 | 23.0 | 0.00 | 0.00 | 0.00 | 49 | 990.0 |
| 20260509190024 | 61 | 270 | 11.0 | 23.0 | 0.00 | 0.00 | 0.00 | 49 | 990.1 |
| 20260509185524 | 60 | 275 | 11.0 | 23.0 | 0.00 | 0.00 | 0.00 | 49 | 989.9 |
| 20260509185002 | 61 | 282 | 11.0 | 20.0 | 0.00 | 0.00 | 0.00 | 49 | 990.0 |
| 20260509184503 | 61 | 276 | 13.0 | 20.0 | 0.00 | 0.00 | 0.00 | 49 | 989.8 |
| 20260509184002 | 61 | 280 | 14.0 | 30.0 | 0.00 | 0.00 | 0.00 | 49 | 989.8 |
| 20260509183503 | 61 | 276 | 14.0 | 30.0 | 0.00 | 0.00 | 0.00 | 49 | 989.8 |
| 20260509183002 | 61 | 266 | 15.0 | 26.0 | 0.00 | 0.00 | 0.00 | 49 | 989.8 |
| 20260509182503 | 61 | 277 | 15.0 | 31.0 | 0.00 | 0.00 | 0.00 | 49 | 989.8 |
| 20260509182003 | 61 | 278 | 14.0 | 31.0 | 0.00 | 0.00 | 0.00 | 48 | 989.7 |
| 20260509181524 | 61 | 267 | 14.0 | 26.0 | 0.00 | 0.00 | 0.00 | 48 | 989.7 |
| 20260509181003 | 61 | 271 | 14.0 | 27.0 | 0.00 | 0.00 | 0.00 | 48 | 989.7 |
| 20260509180524 | 61 | 281 | 15.0 | 29.0 | 0.00 | 0.00 | 0.00 | 48 | 989.7 |
| 20260509180024 | 61 | 275 | 16.0 | 29.0 | 0.00 | 0.00 | 0.00 | 47 | 989.6 |
| 20260509175503 | 62 | 277 | 16.0 | 29.0 | 0.00 | 0.00 | 0.00 | 47 | 989.4 |
| 20260509175003 | 62 | 279 | 15.0 | 29.0 | 0.00 | 0.00 | 0.00 | 47 | 989.4 |
| 20260509174502 | 61 | 278 | 15.0 | 27.0 | 0.00 | 0.00 | 0.00 | 47 | 989.2 |
| 20260509174003 | 61 | 275 | 14.0 | 27.0 | 0.00 | 0.00 | 0.00 | 47 | 989.3 |
| 20260509173503 | 61 | 273 | 12.0 | 27.0 | 0.00 | 0.00 | 0.00 | 47 | 989.3 |
| 20260509173002 | 61 | 279 | 11.0 | 22.0 | 0.00 | 0.00 | 0.00 | 47 | 989.2 |
| 20260509172503 | 61 | 283 | 10.0 | 20.0 | 0.00 | 0.00 | 0.00 | 47 | 989.3 |
| 20260509172024 | 61 | 271 | 10.0 | 20.0 | 0.00 | 0.00 | 0.00 | 47 | 989.3 |
| 20260509171502 | 61 | 262 | 10.0 | 19.0 | 0.00 | 0.00 | 0.00 | 47 | 989.4 |
| 20260509171002 | 61 | 273 | 11.0 | 19.0 | 0.00 | 0.00 | 0.00 | 47 | 989.3 |
| 20260509170524 | 61 | 268 | 11.0 | 18.0 | 0.00 | 0.00 | 0.00 | 47 | 989.3 |
| 20260509170002 | 62 | 270 | 13.0 | 20.0 | 0.00 | 0.00 | 0.00 | 46 | 989.3 |
| 20260509165503 | 62 | 270 | 13.0 | 26.0 | 0.00 | 0.00 | 0.00 | 46 | 989.4 |
| 20260509165003 | 62 | 269 | 13.0 | 26.0 | 0.00 | 0.00 | 0.00 | 46 | 989.2 |
| 20260509164503 | 61 | 267 | 12.0 | 26.0 | 0.00 | 0.00 | 0.00 | 47 | 989.2 |
| 20260509164002 | 61 | 275 | 12.0 | 26.0 | 0.00 | 0.00 | 0.00 | 47 | 989.0 |
| 20260509163503 | 61 | 282 | 12.0 | 22.0 | 0.00 | 0.00 | 0.00 | 47 | 989.0 |
| 20260509163003 | 61 | 280 | 12.0 | 21.0 | 0.00 | 0.00 | 0.00 | 48 | 989.0 |
| 20260509162503 | 61 | 277 | 12.0 | 21.0 | 0.00 | 0.00 | 0.00 | 48 | 989.0 |
| 20260509162003 | 61 | 283 | 10.0 | 21.0 | 0.00 | 0.00 | 0.00 | 48 | 989.1 |
| 20260509161502 | 61 | 286 | 10.0 | 18.0 | 0.00 | 0.00 | 0.00 | 48 | 989.1 |
| 20260509161003 | 61 | 280 | 11.0 | 17.0 | 0.00 | 0.00 | 0.00 | 48 | 989.1 |
| 20260509160503 | 61 | 282 | 12.0 | 19.0 | 0.00 | 0.00 | 0.00 | 48 | 989.2 |
| 20260509160003 | 61 | 291 | 11.0 | 24.0 | 0.00 | 0.00 | 0.00 | 47 | 989.0 |
| 20260509155502 | 61 | 298 | 11.0 | 24.0 | 0.00 | 0.00 | 0.00 | 47 | 989.2 |
| 20260509155002 | 61 | 291 | 11.0 | 18.0 | 0.00 | 0.00 | 0.00 | 47 | 989.3 |
| 20260509154503 | 61 | 281 | 12.0 | 18.0 | 0.00 | 0.00 | 0.00 | 48 | 989.2 |
| 20260509154024 | 60 | 279 | 13.0 | 25.0 | 0.00 | 0.00 | 0.00 | 48 | 989.2 |
| 20260509153503 | 60 | 281 | 13.0 | 25.0 | 0.00 | 0.00 | 0.00 | 48 | 989.2 |
| 20260509153003 | 60 | 273 | 14.0 | 25.0 | 0.00 | 0.00 | 0.00 | 49 | 989.4 |
| 20260509152524 | 60 | 273 | 14.0 | 25.0 | 0.00 | 0.00 | 0.00 | 49 | 989.5 |
| 20260509152002 | 60 | 276 | 14.0 | 23.0 | 0.00 | 0.00 | 0.00 | 49 | 989.4 |
| 20260509151523 | 60 | 286 | 13.0 | 24.0 | 0.00 | 0.00 | 0.00 | 50 | 989.5 |
| 20260509151002 | 60 | 295 | 14.0 | 24.0 | 0.00 | 0.00 | 0.00 | 51 | 989.6 |
| 20260509150503 | 60 | 293 | 14.0 | 28.0 | 0.00 | 0.00 | 0.00 | 51 | 989.5 |
| 20260509150003 | 60 | 298 | 14.0 | 28.0 | 0.00 | 0.00 | 0.00 | 51 | 989.7 |
| 20260509145503 | 60 | 299 | 14.0 | 28.0 | 0.00 | 0.00 | 0.00 | 51 | 989.6 |
| 20260509145023 | 60 | 292 | 14.0 | 23.0 | 0.00 | 0.00 | 0.00 | 52 | 989.8 |
| 20260509144524 | 60 | 292 | 15.0 | 23.0 | 0.00 | 0.00 | 0.00 | 52 | 989.9 |
| 20260509144024 | 60 | 299 | 15.0 | 26.0 | 0.00 | 0.00 | 0.00 | 52 | 989.9 |
| 20260509143503 | 60 | 299 | 15.0 | 26.0 | 0.00 | 0.00 | 0.00 | 52 | 989.8 |
| 20260509143024 | 60 | 297 | 16.0 | 26.0 | 0.00 | 0.00 | 0.00 | 52 | 990.0 |
| 20260509142503 | 60 | 300 | 16.0 | 27.0 | 0.00 | 0.00 | 0.00 | 52 | 990.0 |
| 20260509142003 | 60 | 300 | 16.0 | 30.0 | 0.00 | 0.00 | 0.00 | 52 | 990.2 |
| 20260509141524 | 60 | 300 | 16.0 | 30.0 | 0.00 | 0.00 | 0.00 | 52 | 990.3 |
| 20260509141003 | 60 | 300 | 15.0 | 26.0 | 0.00 | 0.00 | 0.00 | 51 | 990.2 |
| 20260509140524 | 60 | 296 | 13.0 | 29.0 | 0.00 | 0.00 | 0.00 | 52 | 990.1 |
| 20260509140002 | 60 | 289 | 13.0 | 29.0 | 0.00 | 0.00 | 0.00 | 52 | 990.4 |
| 20260509135503 | 60 | 286 | 14.0 | 29.0 | 0.00 | 0.00 | 0.00 | 51 | 990.5 |
| 20260509135003 | 60 | 286 | 14.0 | 29.0 | 0.00 | 0.00 | 0.00 | 51 | 990.6 |
| 20260509134524 | 60 | 289 | 14.0 | 28.0 | 0.00 | 0.00 | 0.00 | 51 | 990.6 |
| 20260509134024 | 60 | 288 | 13.0 | 28.0 | 0.00 | 0.00 | 0.00 | 51 | 990.6 |
| 20260509133503 | 60 | 289 | 14.0 | 22.0 | 0.00 | 0.00 | 0.00 | 51 | 990.5 |
| 20260509133003 | 60 | 294 | 14.0 | 24.0 | 0.00 | 0.01 | 0.00 | 50 | 990.3 |
| 20260509132503 | 59 | 296 | 14.0 | 26.0 | 0.00 | 0.01 | 0.00 | 50 | 990.4 |
| 20260509132024 | 59 | 297 | 14.0 | 26.0 | 0.00 | 0.01 | 0.00 | 50 | 990.6 |
| 20260509131503 | 60 | 296 | 14.0 | 25.0 | 0.00 | 0.01 | 0.00 | 51 | 990.6 |
| 20260509131002 | 60 | 297 | 14.0 | 24.0 | 0.00 | 0.01 | 0.00 | 50 | 990.7 |
| 20260509130502 | 59 | 299 | 13.0 | 22.0 | 0.00 | 0.02 | 0.00 | 51 | 990.7 |
| 20260509130003 | 59 | 299 | 13.0 | 24.0 | 0.00 | 0.02 | 0.00 | 51 | 990.9 |
| 20260509125503 | 59 | 298 | 14.0 | 24.0 | 0.00 | 0.03 | 0.00 | 51 | 990.9 |
| 20260509125024 | 59 | 302 | 14.0 | 27.0 | 0.00 | 0.03 | 0.00 | 51 | 991.0 |
| 20260509124524 | 59 | 302 | 14.0 | 27.0 | 0.00 | 0.05 | 0.00 | 51 | 990.9 |
| 20260509124003 | 59 | 298 | 13.0 | 26.0 | 0.00 | 0.06 | 0.00 | 51 | 990.9 |
| 20260509123503 | 59 | 297 | 12.0 | 26.0 | 0.00 | 0.08 | 0.00 | 51 | 991.1 |
| 20260509123003 | 59 | 296 | 12.0 | 19.0 | 0.00 | 0.09 | 0.00 | 51 | 991.2 |
| 20260509122503 | 59 | 299 | 12.0 | 21.0 | 0.00 | 0.11 | 0.00 | 51 | 991.1 |
| 20260509122003 | 59 | 300 | 12.0 | 21.0 | 0.00 | 0.11 | 0.00 | 50 | 991.2 |
| 20260509121524 | 59 | 304 | 12.0 | 21.0 | 0.00 | 0.11 | 0.00 | 50 | 991.2 |
| 20260509121024 | 59 | 305 | 12.0 | 21.0 | 0.00 | 0.12 | 0.00 | 50 | 991.2 |
| 20260509120503 | 59 | 304 | 13.0 | 23.0 | 0.00 | 0.12 | 0.00 | 50 | 991.3 |
| 20260509120024 | 59 | 306 | 13.0 | 23.0 | 0.00 | 0.12 | 0.00 | 50 | 991.2 |
| 20260509115503 | 59 | 303 | 13.0 | 20.0 | 0.00 | 0.12 | 0.12 | 50 | 991.3 |
| 20260509115024 | 59 | 300 | 13.0 | 23.0 | 0.00 | 0.12 | 0.12 | 50 | 991.4 |
| 20260509114503 | 59 | 304 | 12.0 | 23.0 | 0.00 | 0.13 | 0.12 | 50 | 991.4 |
| 20260509114003 | 59 | 308 | 11.0 | 22.0 | 0.00 | 0.13 | 0.12 | 50 | 991.5 |
| 20260509113503 | 59 | 306 | 10.0 | 20.0 | 0.00 | 0.13 | 0.12 | 50 | 991.4 |
| 20260509113024 | 59 | 304 | 10.0 | 20.0 | 0.00 | 0.13 | 0.12 | 51 | 991.4 |
| 20260509112503 | 59 | 306 | 9.0 | 16.0 | 0.00 | 0.13 | 0.12 | 51 | 991.4 |
| 20260509112003 | 59 | 312 | 9.0 | 16.0 | 0.00 | 0.13 | 0.12 | 51 | 991.5 |
| 20260509111503 | 59 | 313 | 9.0 | 17.0 | 0.00 | 0.13 | 0.12 | 51 | 991.6 |
| 20260509111003 | 59 | 310 | 10.0 | 17.0 | 0.00 | 0.13 | 0.12 | 50 | 991.6 |
| 20260509110503 | 59 | 313 | 11.0 | 20.0 | 0.00 | 0.13 | 0.12 | 50 | 991.8 |
| 20260509110003 | 59 | 314 | 10.0 | 23.0 | 0.00 | 0.13 | 0.12 | 50 | 991.8 |
| 20260509105524 | 59 | 311 | 10.0 | 23.0 | 0.00 | 0.14 | 0.12 | 50 | 991.8 |
| 20260509105003 | 59 | 311 | 10.0 | 17.0 | 0.00 | 0.14 | 0.12 | 50 | 991.7 |
| 20260509104503 | 59 | 313 | 11.0 | 17.0 | 0.00 | 0.14 | 0.12 | 50 | 991.6 |
| 20260509104003 | 59 | 314 | 11.0 | 20.0 | 0.00 | 0.14 | 0.12 | 50 | 991.5 |
| 20260509103503 | 59 | 310 | 12.0 | 25.0 | 0.00 | 0.14 | 0.12 | 50 | 991.5 |
| 20260509103003 | 59 | 310 | 13.0 | 25.0 | 0.00 | 0.14 | 0.12 | 49 | 991.6 |
| 20260509102503 | 59 | 309 | 12.0 | 23.0 | 0.00 | 0.14 | 0.12 | 49 | 991.6 |
| 20260509102003 | 59 | 307 | 11.0 | 21.0 | 0.00 | 0.14 | 0.12 | 49 | 991.5 |
| 20260509101503 | 59 | 309 | 10.0 | 21.0 | 0.00 | 0.14 | 0.12 | 49 | 991.4 |
| 20260509101003 | 59 | 309 | 10.0 | 20.0 | 0.00 | 0.14 | 0.12 | 49 | 991.4 |
| 20260509100503 | 59 | 311 | 11.0 | 20.0 | 0.00 | 0.14 | 0.12 | 48 | 991.4 |
| 20260509100004 | 59 | 311 | 11.0 | 20.0 | 0.00 | 0.14 | 0.12 | 48 | 991.2 |
| 20260509095503 | 59 | 314 | 11.0 | 19.0 | 0.00 | 0.14 | 0.12 | 48 | 991.3 |
| 20260509095003 | 59 | 315 | 10.0 | 21.0 | 0.00 | 0.14 | 0.12 | 48 | 991.2 |
| 20260509094503 | 59 | 311 | 9.0 | 21.0 | 0.00 | 0.14 | 0.12 | 48 | 991.2 |
| 20260509094003 | 59 | 313 | 9.0 | 20.0 | 0.00 | 0.14 | 0.12 | 48 | 991.1 |
| 20260509093524 | 59 | 314 | 10.0 | 20.0 | 0.00 | 0.14 | 0.12 | 48 | 991.2 |
| 20260509093003 | 59 | 315 | 10.0 | 20.0 | 0.00 | 0.14 | 0.12 | 48 | 991.0 |
| 20260509092503 | 59 | 312 | 10.0 | 19.0 | 0.00 | 0.14 | 0.12 | 48 | 991.0 |
| 20260509092024 | 59 | 306 | 10.0 | 20.0 | 0.00 | 0.14 | 0.12 | 48 | 990.9 |
| 20260509091503 | 59 | 303 | 11.0 | 20.0 | 0.00 | 0.14 | 0.12 | 48 | 990.9 |
| 20260509091003 | 59 | 303 | 11.0 | 18.0 | 0.00 | 0.14 | 0.12 | 48 | 990.9 |
| 20260509090503 | 59 | 304 | 11.0 | 18.0 | 0.00 | 0.14 | 0.12 | 48 | 990.9 |
| 20260509090024 | 59 | 307 | 11.0 | 19.0 | 0.00 | 0.14 | 0.12 | 48 | 990.8 |
| 20260509085503 | 59 | 307 | 10.0 | 19.0 | 0.00 | 0.14 | 0.12 | 48 | 990.8 |
| 20260509085003 | 59 | 306 | 10.0 | 18.0 | 0.00 | 0.14 | 0.12 | 48 | 990.8 |
| 20260509084503 | 59 | 306 | 10.0 | 19.0 | 0.00 | 0.14 | 0.12 | 49 | 990.7 |
| 20260509084003 | 59 | 308 | 10.0 | 19.0 | 0.00 | 0.14 | 0.12 | 49 | 990.8 |
| 20260509083524 | 58 | 309 | 10.0 | 19.0 | 0.00 | 0.14 | 0.12 | 49 | 990.8 |
| 20260509083003 | 58 | 306 | 10.0 | 20.0 | 0.00 | 0.14 | 0.12 | 49 | 990.8 |
| 20260509082503 | 59 | 304 | 10.0 | 20.0 | 0.00 | 0.14 | 0.12 | 49 | 990.8 |
| 20260509082003 | 59 | 305 | 10.0 | 22.0 | 0.00 | 0.14 | 0.12 | 49 | 990.9 |
| 20260509081524 | 59 | 306 | 12.0 | 22.0 | 0.00 | 0.14 | 0.12 | 49 | 990.9 |
| 20260509081003 | 59 | 313 | 13.0 | 21.0 | 0.00 | 0.14 | 0.12 | 49 | 990.9 |
| 20260509080503 | 59 | 315 | 12.0 | 21.0 | 0.00 | 0.14 | 0.12 | 49 | 990.8 |
| 20260509080003 | 59 | 308 | 12.0 | 21.0 | 0.00 | 0.14 | 0.12 | 49 | 990.8 |
| 20260509075503 | 59 | 307 | 12.0 | 22.0 | 0.00 | 0.14 | 0.12 | 49 | 990.8 |
| 20260509075003 | 59 | 311 | 12.0 | 25.0 | 0.00 | 0.14 | 0.12 | 49 | 990.7 |
| 20260509074524 | 59 | 309 | 11.0 | 25.0 | 0.00 | 0.14 | 0.12 | 49 | 990.6 |
| 20260509074003 | 58 | 308 | 11.0 | 24.0 | 0.00 | 0.14 | 0.12 | 49 | 990.4 |
| 20260509073503 | 58 | 312 | 10.0 | 20.0 | 0.00 | 0.14 | 0.12 | 49 | 990.3 |
| 20260509073003 | 58 | 315 | 10.0 | 20.0 | 0.00 | 0.14 | 0.12 | 49 | 990.1 |
| 20260509072503 | 58 | 319 | 10.0 | 20.0 | 0.00 | 0.14 | 0.12 | 50 | 990.2 |
| 20260509072003 | 58 | 319 | 9.0 | 18.0 | 0.00 | 0.14 | 0.12 | 50 | 990.0 |
| 20260509071503 | 58 | 321 | 9.0 | 23.0 | 0.00 | 0.14 | 0.12 | 50 | 990.0 |
| 20260509071024 | 58 | 326 | 9.0 | 23.0 | 0.00 | 0.14 | 0.12 | 50 | 990.0 |
| 20260509070503 | 58 | 326 | 9.0 | 17.0 | 0.00 | 0.14 | 0.12 | 51 | 990.0 |
| 20260509070003 | 57 | 324 | 7.0 | 17.0 | 0.00 | 0.14 | 0.12 | 52 | 990.2 |
| 20260509065503 | 56 | 329 | 5.0 | 16.0 | 0.00 | 0.14 | 0.12 | 54 | 990.0 |
| 20260509065003 | 56 | 339 | 5.0 | 16.0 | 0.00 | 0.14 | 0.12 | 57 | 989.9 |
| 20260509064503 | 56 | 344 | 6.0 | 14.0 | 0.00 | 0.14 | 0.12 | 61 | 989.9 |
| 20260509064025 | 56 | 353 | 7.0 | 14.0 | 0.00 | 0.14 | 0.12 | 62 | 989.9 |
| 20260509063524 | 57 | 354 | 9.0 | 16.0 | 0.00 | 0.14 | 0.12 | 62 | 989.9 |
| 20260509063024 | 57 | 348 | 10.0 | 23.0 | 0.00 | 0.14 | 0.12 | 61 | 989.8 |
| 20260509062524 | 56 | 346 | 7.0 | 23.0 | 0.00 | 0.14 | 0.12 | 57 | 989.8 |
| 20260509062024 | 56 | 343 | 5.0 | 20.0 | 0.00 | 0.14 | 0.12 | 60 | 989.7 |
| 20260509061524 | 55 | 347 | 5.0 | 16.0 | 0.00 | 0.14 | 0.12 | 63 | 989.8 |
| 20260509061024 | 55 | 347 | 5.0 | 16.0 | 0.00 | 0.14 | 0.12 | 65 | 989.7 |
| 20260509060503 | 54 | 356 | 3.0 | 11.0 | 0.00 | 0.14 | 0.12 | 66 | 989.8 |
| 20260509060003 | 54 | 21 | 2.0 | 11.0 | 0.00 | 0.14 | 0.12 | 69 | 989.7 |
| 20260509055503 | 54 | 58 | 3.0 | 4.0 | 0.00 | 0.14 | 0.12 | 70 | 989.7 |
| 20260509055003 | 54 | 35 | 4.0 | 8.0 | 0.00 | 0.14 | 0.12 | 73 | 989.8 |
| 20260509054503 | 55 | 51 | 5.0 | 13.0 | 0.00 | 0.14 | 0.12 | 74 | 989.7 |
| 20260509054024 | 54 | 68 | 5.0 | 13.0 | 0.00 | 0.14 | 0.12 | 75 | 989.7 |
| 20260509053503 | 55 | 96 | 4.0 | 13.0 | 0.00 | 0.14 | 0.12 | 77 | 989.7 |
| 20260509053003 | 56 | 135 | 3.0 | 8.0 | 0.00 | 0.15 | 0.12 | 77 | 989.7 |
| 20260509052503 | 56 | 113 | 3.0 | 7.0 | 0.00 | 0.15 | 0.12 | 76 | 989.7 |
| 20260509052003 | 56 | 96 | 3.0 | 6.0 | 0.00 | 0.15 | 0.12 | 75 | 989.8 |
| 20260509051503 | 57 | 105 | 3.0 | 9.0 | 0.00 | 0.17 | 0.12 | 75 | 989.9 |
| 20260509051024 | 57 | 104 | 3.0 | 9.0 | 0.00 | 0.18 | 0.12 | 75 | 989.8 |
| 20260509050503 | 57 | 75 | 5.0 | 9.0 | 0.00 | 0.20 | 0.12 | 73 | 989.7 |
| 20260509050003 | 57 | 38 | 8.0 | 12.0 | 0.00 | 0.23 | 0.12 | 72 | 989.7 |
| 20260509045503 | 58 | 347 | 8.0 | 18.0 | 0.00 | 0.24 | 0.12 | 68 | 989.8 |
| 20260509045003 | 60 | 326 | 9.0 | 18.0 | 0.00 | 0.25 | 0.12 | 46 | 989.8 |
| 20260509044503 | 60 | 322 | 10.0 | 20.0 | 0.00 | 0.25 | 0.12 | 48 | 989.9 |
| 20260509044003 | 60 | 321 | 9.0 | 20.0 | 0.00 | 0.25 | 0.12 | 48 | 989.9 |
| 20260509043524 | 61 | 318 | 8.0 | 19.0 | 0.00 | 0.26 | 0.12 | 47 | 989.9 |
| 20260509043003 | 61 | 316 | 8.0 | 14.0 | 0.00 | 0.26 | 0.12 | 48 | 989.9 |
| 20260509042503 | 61 | 325 | 7.0 | 15.0 | 0.00 | 0.27 | 0.12 | 48 | 990.0 |
| 20260509042004 | 61 | 323 | 6.0 | 15.0 | 0.00 | 0.28 | 0.12 | 48 | 990.0 |
| 20260509041503 | 61 | 309 | 6.0 | 13.0 | 0.00 | 0.30 | 0.12 | 49 | 990.1 |
| 20260509041024 | 61 | 312 | 6.0 | 13.0 | 0.00 | 0.31 | 0.12 | 48 | 990.0 |
| 20260509040503 | 62 | 315 | 4.0 | 13.0 | 0.00 | 0.32 | 0.12 | 49 | 990.0 |
| 20260509040004 | 62 | 327 | 3.0 | 13.0 | 0.00 | 0.35 | 0.12 | 52 | 990.0 |
| 20260509035503 | 62 | 42 | 5.0 | 7.0 | 0.00 | 0.39 | 0.12 | 64 | 989.9 |
| 20260509035003 | 62 | 45 | 7.0 | 10.0 | 0.00 | 0.40 | 0.12 | 70 | 989.9 |
| 20260509034503 | 63 | 348 | 8.0 | 14.0 | 0.00 | 0.43 | 0.12 | 59 | 989.9 |
| 20260509034003 | 64 | 328 | 8.0 | 16.0 | 0.00 | 0.44 | 0.12 | 46 | 989.9 |
| 20260509033524 | 64 | 333 | 9.0 | 16.0 | 0.00 | 0.44 | 0.12 | 49 | 990.0 |
| 20260509033003 | 64 | 326 | 7.0 | 17.0 | 0.00 | 0.44 | 0.12 | 49 | 989.9 |
| 20260509032503 | 64 | 313 | 4.0 | 17.0 | 0.00 | 0.44 | 0.12 | 48 | 990.0 |